Historique des mesures à Cassis (13260), France
Quotidien Résumé Novembre 9, 2017 Unités:  Métrique    US   Métrique/US
« Précédent (Jour)
Suivant (Jour) »
Quotidien Hebdomadaire Mensuel Annuel Période au choix
  Maximum: Minimum: Moyenne:
Température: TemperatureC °C 6.1 °C 8.9 °C
Point de rosée: DewpointC °C 0.9 °C 3 °C
Humidité: Humidity % 60 % 63 %
Vitesse du vent: 0 km/h 0 km/h 5.1 km/h
Rafales: 0 km/h - -
Vent:- - WSW
Pression: PressurehPa hPa 1015.1 hPa -
Précipitations: 0.0 mm    
Historical Graphs
 
 
Mesures pour : Novembre 9, 2017
Heure Temperature Point de rosée Pression Vent Vitesse du vent Rafales Humidité Pluie (par heure) Conditions
TemperatureC °C DewpointC °C PressurehPa hPa Calm     Humidity % HourlyPrecipMM mm SoftwareType W/m2
00:10 8.3 °C 1.0 °C 1015.5 hPa NNW 9.8 km/h 30.7 km/h 60 % 0.0 mm open2300-1.11 W/m2
01:11 7.8 °C 0.9 °C 1015.5 hPa NNW 22.5 km/h 22.5 km/h 62 % 0.0 mm open2300-1.11 W/m2
02:10 7.4 °C 1.0 °C 1015.5 hPa WNW 13.2 km/h 13.2 km/h 64 % 0.0 mm open2300-1.11 W/m2
03:11 7.1 °C 0.9 °C 1015.5 hPa NNW 8.9 km/h 15 km/h 65 % 0.0 mm open2300-1.11 W/m2
04:10 6.8 °C 1.1 °C 1015.1 hPa NW 38.8 km/h 38.8 km/h 67 % 0.0 mm open2300-1.11 W/m2
05:11 6.5 °C 1.0 °C 1015.5 hPa Calm     68 % 0.0 mm open2300-1.11 W/m2
06:11 6.1 °C 0.9 °C 1015.5 hPa Calm     69 % 0.0 mm open2300-1.11 W/m2
07:11 6.1 °C 1.1 °C 1015.5 hPa NW 12.2 km/h 12.2 km/h 70 % 0.0 mm open2300-1.11 W/m2
08:10 6.1 °C 1.1 °C 1015.8 hPa Calm     70 % 0.0 mm open2300-1.11 W/m2
09:11 7.7 °C 1.9 °C 1016.1 hPa North 7.6 km/h 7.6 km/h 67 % 0.0 mm open2300-1.11 W/m2
10:10 7.9 °C 2.1 °C 1016.1 hPa Calm     67 % 0.0 mm open2300-1.11 W/m2
11:11 9.7 °C 3.2 °C 1016.1 hPa Calm   10.9 km/h 64 % 0.0 mm open2300-1.11 W/m2
12:10 10.8 °C 4.0 °C 1015.8 hPa Calm   9.8 km/h 63 % 0.0 mm open2300-1.11 W/m2
13:11 11.6 °C 4.8 °C 1015.8 hPa Calm   3.4 km/h 63 % 0.0 mm open2300-1.11 W/m2
14:10 12.1 °C 5.3 °C 1015.8 hPa Calm     63 % 0.0 mm open2300-1.11 W/m2
15:11 12.6 °C 5.7 °C 1015.8 hPa Calm     63 % 0.0 mm open2300-1.11 W/m2
16:10 12.4 °C 5.6 °C 1016.1 hPa Calm     63 % 0.0 mm open2300-1.11 W/m2
17:11 11.8 °C 5.2 °C 1016.5 hPa Calm     64 % 0.0 mm open2300-1.11 W/m2
18:10 10.6 °C 4.7 °C 1016.8 hPa Calm     67 % 0.0 mm open2300-1.11 W/m2
19:11 11.0 °C 4.9 °C 1017.8 hPa NW 15 km/h 17.9 km/h 66 % 0.0 mm open2300-1.11 W/m2
20:11 10.8 °C 4.7 °C 1018.5 hPa Calm     66 % 0.0 mm open2300-1.11 W/m2
21:11 10.8 °C 4.4 °C 1018.8 hPa North 1.8 km/h 2.3 km/h 65 % 0.0 mm open2300-1.11 W/m2
22:10 10.8 °C 4.4 °C 1019.2 hPa Calm     65 % 0.0 mm open2300-1.11 W/m2
23:11 10.6 °C 4.3 °C 1018.8 hPa Calm     65 % 0.0 mm open2300-1.11 W/m2
Observations météo à CASSIS
WU-History script by Weather Underground - 1 mb